sensor_id;sensor_type;location;lat;lon;timestamp;P1;durP1;ratioP1;P2;durP2;ratioP2
846;SDS011;410;48.954;9.474;2023-06-10T00:00:34;6.73;;;6.03;;
846;SDS011;410;48.954;9.474;2023-06-10T00:02:37;7.00;;;6.40;;
846;SDS011;410;48.954;9.474;2023-06-10T00:04:41;7.80;;;5.93;;
846;SDS011;410;48.954;9.474;2023-06-10T00:06:44;7.10;;;6.40;;
846;SDS011;410;48.954;9.474;2023-06-10T00:08:50;7.47;;;6.70;;
846;SDS011;410;48.954;9.474;2023-06-10T00:10:53;5.53;;;5.03;;
846;SDS011;410;48.954;9.474;2023-06-10T00:12:56;6.93;;;6.27;;
846;SDS011;410;48.954;9.474;2023-06-10T00:15:00;5.57;;;5.07;;
846;SDS011;410;48.954;9.474;2023-06-10T00:17:04;5.70;;;5.20;;
846;SDS011;410;48.954;9.474;2023-06-10T00:19:11;6.60;;;5.87;;
846;SDS011;410;48.954;9.474;2023-06-10T00:21:16;6.30;;;5.63;;
846;SDS011;410;48.954;9.474;2023-06-10T00:23:19;6.30;;;5.70;;
846;SDS011;410;48.954;9.474;2023-06-10T00:25:22;5.73;;;5.20;;
846;SDS011;410;48.954;9.474;2023-06-10T00:27:25;7.53;;;5.77;;
846;SDS011;410;48.954;9.474;2023-06-10T00:29:34;5.80;;;5.20;;
846;SDS011;410;48.954;9.474;2023-06-10T00:31:39;6.60;;;5.90;;
846;SDS011;410;48.954;9.474;2023-06-10T00:33:42;6.20;;;5.60;;
846;SDS011;410;48.954;9.474;2023-06-10T00:35:45;5.20;;;4.70;;
846;SDS011;410;48.954;9.474;2023-06-10T00:37:49;5.87;;;5.27;;
846;SDS011;410;48.954;9.474;2023-06-10T00:39:52;6.33;;;5.73;;
846;SDS011;410;48.954;9.474;2023-06-10T00:41:55;6.97;;;6.27;;
846;SDS011;410;48.954;9.474;2023-06-10T00:43:58;7.33;;;6.57;;
846;SDS011;410;48.954;9.474;2023-06-10T00:46:01;7.43;;;6.63;;
846;SDS011;410;48.954;9.474;2023-06-10T00:48:06;6.70;;;6.10;;
846;SDS011;410;48.954;9.474;2023-06-10T00:50:10;7.50;;;6.70;;
846;SDS011;410;48.954;9.474;2023-06-10T00:52:14;8.63;;;6.30;;
846;SDS011;410;48.954;9.474;2023-06-10T00:54:17;7.33;;;6.63;;
846;SDS011;410;48.954;9.474;2023-06-10T00:56:21;8.60;;;7.57;;
846;SDS011;410;48.954;9.474;2023-06-10T00:58:24;8.50;;;7.40;;
846;SDS011;410;48.954;9.474;2023-06-10T01:00:28;7.73;;;6.93;;
846;SDS011;410;48.954;9.474;2023-06-10T01:02:31;7.60;;;6.90;;
846;SDS011;410;48.954;9.474;2023-06-10T01:04:35;8.43;;;7.03;;
846;SDS011;410;48.954;9.474;2023-06-10T01:06:41;8.37;;;7.57;;
846;SDS011;410;48.954;9.474;2023-06-10T01:08:50;10.23;;;8.10;;
846;SDS011;410;48.954;9.474;2023-06-10T01:10:57;8.40;;;7.43;;
846;SDS011;410;48.954;9.474;2023-06-10T01:13:02;7.93;;;7.13;;
846;SDS011;410;48.954;9.474;2023-06-10T01:15:08;8.60;;;7.80;;
846;SDS011;410;48.954;9.474;2023-06-10T01:17:13;8.03;;;7.23;;
846;SDS011;410;48.954;9.474;2023-06-10T01:19:18;14.17;;;9.03;;
846;SDS011;410;48.954;9.474;2023-06-10T01:21:23;8.73;;;7.83;;
846;SDS011;410;48.954;9.474;2023-06-10T01:23:28;10.83;;;9.20;;
846;SDS011;410;48.954;9.474;2023-06-10T01:25:32;9.33;;;7.77;;
846;SDS011;410;48.954;9.474;2023-06-10T01:27:37;8.90;;;8.00;;
846;SDS011;410;48.954;9.474;2023-06-10T01:29:43;8.80;;;8.00;;
846;SDS011;410;48.954;9.474;2023-06-10T01:31:51;9.03;;;8.13;;
846;SDS011;410;48.954;9.474;2023-06-10T01:34:00;8.57;;;7.77;;
846;SDS011;410;48.954;9.474;2023-06-10T01:36:04;9.27;;;7.33;;
846;SDS011;410;48.954;9.474;2023-06-10T01:38:10;9.30;;;8.40;;
846;SDS011;410;48.954;9.474;2023-06-10T01:40:13;9.33;;;8.27;;
846;SDS011;410;48.954;9.474;2023-06-10T01:42:17;8.57;;;7.77;;
846;SDS011;410;48.954;9.474;2023-06-10T01:44:21;9.70;;;8.07;;
846;SDS011;410;48.954;9.474;2023-06-10T01:46:24;8.90;;;8.00;;
846;SDS011;410;48.954;9.474;2023-06-10T01:48:28;10.07;;;8.60;;
846;SDS011;410;48.954;9.474;2023-06-10T01:50:31;9.33;;;8.40;;
846;SDS011;410;48.954;9.474;2023-06-10T01:52:34;8.47;;;7.57;;
846;SDS011;410;48.954;9.474;2023-06-10T01:54:38;9.53;;;8.43;;
846;SDS011;410;48.954;9.474;2023-06-10T01:56:42;9.17;;;8.10;;
846;SDS011;410;48.954;9.474;2023-06-10T01:58:45;8.73;;;7.53;;
846;SDS011;410;48.954;9.474;2023-06-10T02:00:49;9.20;;;8.30;;
846;SDS011;410;48.954;9.474;2023-06-10T02:02:52;9.60;;;8.10;;
846;SDS011;410;48.954;9.474;2023-06-10T02:04:55;9.03;;;8.13;;
846;SDS011;410;48.954;9.474;2023-06-10T02:06:58;8.27;;;7.43;;
846;SDS011;410;48.954;9.474;2023-06-10T02:09:05;9.07;;;8.17;;
846;SDS011;410;48.954;9.474;2023-06-10T02:11:10;8.37;;;7.57;;
846;SDS011;410;48.954;9.474;2023-06-10T02:13:13;8.70;;;7.90;;
846;SDS011;410;48.954;9.474;2023-06-10T02:15:17;9.03;;;7.90;;
846;SDS011;410;48.954;9.474;2023-06-10T02:17:21;8.93;;;8.03;;
846;SDS011;410;48.954;9.474;2023-06-10T02:19:25;8.40;;;7.60;;
846;SDS011;410;48.954;9.474;2023-06-10T02:21:28;8.03;;;7.20;;
846;SDS011;410;48.954;9.474;2023-06-10T02:23:31;7.93;;;7.13;;
846;SDS011;410;48.954;9.474;2023-06-10T02:25:37;9.07;;;6.80;;
846;SDS011;410;48.954;9.474;2023-06-10T02:27:43;8.40;;;7.60;;
846;SDS011;410;48.954;9.474;2023-06-10T02:29:46;8.93;;;7.30;;
846;SDS011;410;48.954;9.474;2023-06-10T02:31:50;8.10;;;7.30;;
846;SDS011;410;48.954;9.474;2023-06-10T02:33:54;8.07;;;7.27;;
846;SDS011;410;48.954;9.474;2023-06-10T02:35:59;8.10;;;7.30;;
846;SDS011;410;48.954;9.474;2023-06-10T02:38:02;8.97;;;8.07;;
846;SDS011;410;48.954;9.474;2023-06-10T02:40:08;7.77;;;6.90;;
846;SDS011;410;48.954;9.474;2023-06-10T02:42:12;8.23;;;7.40;;
846;SDS011;410;48.954;9.474;2023-06-10T02:44:18;8.67;;;7.77;;
846;SDS011;410;48.954;9.474;2023-06-10T02:46:22;8.87;;;7.97;;
846;SDS011;410;48.954;9.474;2023-06-10T02:48:27;8.50;;;7.63;;
846;SDS011;410;48.954;9.474;2023-06-10T02:50:31;7.80;;;7.00;;
846;SDS011;410;48.954;9.474;2023-06-10T02:52:46;7.47;;;6.77;;
846;SDS011;410;48.954;9.474;2023-06-10T02:54:49;7.43;;;6.73;;
846;SDS011;410;48.954;9.474;2023-06-10T02:56:53;9.70;;;7.27;;
846;SDS011;410;48.954;9.474;2023-06-10T02:59:00;7.93;;;7.13;;
846;SDS011;410;48.954;9.474;2023-06-10T03:01:06;8.53;;;7.00;;
846;SDS011;410;48.954;9.474;2023-06-10T03:03:25;8.60;;;7.37;;
846;SDS011;410;48.954;9.474;2023-06-10T03:05:38;8.30;;;7.50;;
846;SDS011;410;48.954;9.474;2023-06-10T03:07:42;7.83;;;7.03;;
846;SDS011;410;48.954;9.474;2023-06-10T03:09:45;8.03;;;7.23;;
846;SDS011;410;48.954;9.474;2023-06-10T03:11:49;8.83;;;7.93;;
846;SDS011;410;48.954;9.474;2023-06-10T03:13:53;9.30;;;7.80;;
846;SDS011;410;48.954;9.474;2023-06-10T03:15:58;7.50;;;6.80;;
846;SDS011;410;48.954;9.474;2023-06-10T03:18:03;9.30;;;7.87;;
846;SDS011;410;48.954;9.474;2023-06-10T03:20:07;8.43;;;7.57;;
846;SDS011;410;48.954;9.474;2023-06-10T03:22:14;8.50;;;7.37;;
846;SDS011;410;48.954;9.474;2023-06-10T03:24:39;7.70;;;7.00;;
846;SDS011;410;48.954;9.474;2023-06-10T03:26:44;8.33;;;7.53;;
846;SDS011;410;48.954;9.474;2023-06-10T03:28:48;8.83;;;7.40;;
846;SDS011;410;48.954;9.474;2023-06-10T03:30:52;8.77;;;7.20;;
846;SDS011;410;48.954;9.474;2023-06-10T03:32:58;8.50;;;7.57;;
846;SDS011;410;48.954;9.474;2023-06-10T03:35:05;8.47;;;7.07;;
846;SDS011;410;48.954;9.474;2023-06-10T03:37:10;9.17;;;8.00;;
846;SDS011;410;48.954;9.474;2023-06-10T03:39:14;7.63;;;6.90;;
846;SDS011;410;48.954;9.474;2023-06-10T03:41:17;8.20;;;7.33;;
846;SDS011;410;48.954;9.474;2023-06-10T03:43:20;7.80;;;7.00;;
846;SDS011;410;48.954;9.474;2023-06-10T03:45:25;8.77;;;7.77;;
846;SDS011;410;48.954;9.474;2023-06-10T03:47:33;8.30;;;7.50;;
846;SDS011;410;48.954;9.474;2023-06-10T03:49:40;8.13;;;7.10;;
846;SDS011;410;48.954;9.474;2023-06-10T03:51:45;8.23;;;7.43;;
846;SDS011;410;48.954;9.474;2023-06-10T03:53:48;8.30;;;7.40;;
846;SDS011;410;48.954;9.474;2023-06-10T03:55:51;8.43;;;7.63;;
846;SDS011;410;48.954;9.474;2023-06-10T03:57:57;8.37;;;7.47;;
846;SDS011;410;48.954;9.474;2023-06-10T04:00:00;8.40;;;7.30;;
846;SDS011;410;48.954;9.474;2023-06-10T04:02:15;7.83;;;7.03;;
846;SDS011;410;48.954;9.474;2023-06-10T04:04:19;7.77;;;6.87;;
846;SDS011;410;48.954;9.474;2023-06-10T04:06:22;9.13;;;7.60;;
846;SDS011;410;48.954;9.474;2023-06-10T04:08:29;8.97;;;8.07;;
846;SDS011;410;48.954;9.474;2023-06-10T04:10:34;7.97;;;7.03;;
846;SDS011;410;48.954;9.474;2023-06-10T04:12:37;8.80;;;7.40;;
846;SDS011;410;48.954;9.474;2023-06-10T04:14:40;8.50;;;7.60;;
846;SDS011;410;48.954;9.474;2023-06-10T04:16:45;8.00;;;7.20;;
846;SDS011;410;48.954;9.474;2023-06-10T04:18:49;8.53;;;7.63;;
846;SDS011;410;48.954;9.474;2023-06-10T04:20:53;9.40;;;8.40;;
846;SDS011;410;48.954;9.474;2023-06-10T04:22:57;8.43;;;7.50;;
846;SDS011;410;48.954;9.474;2023-06-10T04:25:02;7.80;;;7.00;;
846;SDS011;410;48.954;9.474;2023-06-10T04:27:06;9.60;;;7.87;;
846;SDS011;410;48.954;9.474;2023-06-10T04:29:09;8.40;;;7.40;;
846;SDS011;410;48.954;9.474;2023-06-10T04:31:13;7.97;;;6.97;;
846;SDS011;410;48.954;9.474;2023-06-10T04:33:17;9.20;;;7.10;;
846;SDS011;410;48.954;9.474;2023-06-10T04:35:20;7.67;;;6.63;;
846;SDS011;410;48.954;9.474;2023-06-10T04:37:24;7.13;;;6.43;;
846;SDS011;410;48.954;9.474;2023-06-10T04:39:28;7.00;;;6.30;;
846;SDS011;410;48.954;9.474;2023-06-10T04:41:33;7.70;;;6.90;;
846;SDS011;410;48.954;9.474;2023-06-10T04:43:37;8.93;;;7.40;;
846;SDS011;410;48.954;9.474;2023-06-10T04:45:40;8.80;;;7.90;;
846;SDS011;410;48.954;9.474;2023-06-10T04:47:47;8.70;;;7.17;;
846;SDS011;410;48.954;9.474;2023-06-10T04:49:50;9.60;;;8.00;;
846;SDS011;410;48.954;9.474;2023-06-10T04:51:54;8.50;;;7.60;;
846;SDS011;410;48.954;9.474;2023-06-10T04:53:57;8.20;;;7.40;;
846;SDS011;410;48.954;9.474;2023-06-10T04:56:04;7.50;;;6.70;;
846;SDS011;410;48.954;9.474;2023-06-10T04:58:08;8.83;;;7.93;;
846;SDS011;410;48.954;9.474;2023-06-10T05:00:12;8.60;;;7.53;;
846;SDS011;410;48.954;9.474;2023-06-10T05:02:15;8.67;;;7.80;;
846;SDS011;410;48.954;9.474;2023-06-10T05:04:19;7.10;;;6.40;;
846;SDS011;410;48.954;9.474;2023-06-10T05:06:22;8.20;;;7.40;;
846;SDS011;410;48.954;9.474;2023-06-10T05:08:25;7.80;;;7.00;;
846;SDS011;410;48.954;9.474;2023-06-10T05:10:28;7.63;;;6.83;;
846;SDS011;410;48.954;9.474;2023-06-10T05:12:33;7.20;;;6.50;;
846;SDS011;410;48.954;9.474;2023-06-10T05:14:37;8.60;;;7.53;;
846;SDS011;410;48.954;9.474;2023-06-10T05:16:40;7.50;;;6.73;;
846;SDS011;410;48.954;9.474;2023-06-10T05:18:45;7.33;;;6.63;;
846;SDS011;410;48.954;9.474;2023-06-10T05:20:48;7.10;;;6.40;;
846;SDS011;410;48.954;9.474;2023-06-10T05:22:52;7.90;;;7.10;;
846;SDS011;410;48.954;9.474;2023-06-10T05:24:55;6.97;;;6.27;;
846;SDS011;410;48.954;9.474;2023-06-10T05:26:58;7.60;;;6.80;;
846;SDS011;410;48.954;9.474;2023-06-10T05:29:01;7.30;;;6.60;;
846;SDS011;410;48.954;9.474;2023-06-10T05:31:06;8.27;;;7.47;;
846;SDS011;410;48.954;9.474;2023-06-10T05:33:09;8.27;;;7.30;;
846;SDS011;410;48.954;9.474;2023-06-10T05:35:12;7.20;;;6.50;;
846;SDS011;410;48.954;9.474;2023-06-10T05:37:15;7.10;;;6.37;;
846;SDS011;410;48.954;9.474;2023-06-10T05:39:19;7.30;;;6.30;;
846;SDS011;410;48.954;9.474;2023-06-10T05:41:22;6.87;;;6.17;;
846;SDS011;410;48.954;9.474;2023-06-10T05:43:25;6.60;;;5.83;;
846;SDS011;410;48.954;9.474;2023-06-10T05:45:28;6.73;;;6.03;;
846;SDS011;410;48.954;9.474;2023-06-10T05:47:33;8.97;;;6.30;;
846;SDS011;410;48.954;9.474;2023-06-10T05:49:36;6.73;;;5.77;;
846;SDS011;410;48.954;9.474;2023-06-10T05:51:39;6.93;;;5.63;;
846;SDS011;410;48.954;9.474;2023-06-10T05:53:42;6.83;;;5.20;;
846;SDS011;410;48.954;9.474;2023-06-10T05:55:48;5.20;;;4.70;;
846;SDS011;410;48.954;9.474;2023-06-10T05:57:57;6.60;;;5.63;;
846;SDS011;410;48.954;9.474;2023-06-10T06:00:01;6.17;;;5.47;;
846;SDS011;410;48.954;9.474;2023-06-10T06:02:13;5.23;;;4.73;;
846;SDS011;410;48.954;9.474;2023-06-10T06:04:18;6.43;;;5.53;;
846;SDS011;410;48.954;9.474;2023-06-10T06:06:21;6.37;;;5.73;;
846;SDS011;410;48.954;9.474;2023-06-10T06:08:25;6.07;;;5.47;;
846;SDS011;410;48.954;9.474;2023-06-10T06:10:28;5.97;;;5.23;;
846;SDS011;410;48.954;9.474;2023-06-10T06:12:32;5.90;;;5.30;;
846;SDS011;410;48.954;9.474;2023-06-10T06:14:38;6.07;;;5.47;;
846;SDS011;410;48.954;9.474;2023-06-10T06:16:43;6.43;;;5.60;;
846;SDS011;410;48.954;9.474;2023-06-10T06:18:46;6.27;;;5.33;;
846;SDS011;410;48.954;9.474;2023-06-10T06:20:51;5.07;;;4.57;;
846;SDS011;410;48.954;9.474;2023-06-10T06:22:54;6.30;;;5.67;;
846;SDS011;410;48.954;9.474;2023-06-10T06:24:57;6.53;;;5.90;;
846;SDS011;410;48.954;9.474;2023-06-10T06:27:02;6.07;;;5.47;;
846;SDS011;410;48.954;9.474;2023-06-10T06:29:10;5.80;;;5.20;;
846;SDS011;410;48.954;9.474;2023-06-10T06:31:16;6.23;;;5.27;;
846;SDS011;410;48.954;9.474;2023-06-10T06:33:19;6.93;;;5.40;;
846;SDS011;410;48.954;9.474;2023-06-10T06:35:23;5.83;;;5.07;;
846;SDS011;410;48.954;9.474;2023-06-10T06:37:27;5.90;;;5.40;;
846;SDS011;410;48.954;9.474;2023-06-10T06:39:49;6.60;;;5.90;;
846;SDS011;410;48.954;9.474;2023-06-10T06:41:55;5.83;;;5.27;;
846;SDS011;410;48.954;9.474;2023-06-10T06:44:15;5.53;;;5.03;;
846;SDS011;410;48.954;9.474;2023-06-10T06:46:25;5.97;;;5.37;;
846;SDS011;410;48.954;9.474;2023-06-10T06:48:30;5.70;;;5.17;;
846;SDS011;410;48.954;9.474;2023-06-10T06:50:34;5.30;;;4.80;;
846;SDS011;410;48.954;9.474;2023-06-10T06:52:39;6.40;;;5.00;;
846;SDS011;410;48.954;9.474;2023-06-10T06:54:42;5.27;;;4.77;;
846;SDS011;410;48.954;9.474;2023-06-10T06:56:47;6.00;;;5.40;;
846;SDS011;410;48.954;9.474;2023-06-10T06:58:50;6.37;;;5.20;;
846;SDS011;410;48.954;9.474;2023-06-10T07:00:58;5.87;;;5.30;;
846;SDS011;410;48.954;9.474;2023-06-10T07:03:03;5.80;;;5.27;;
846;SDS011;410;48.954;9.474;2023-06-10T07:05:07;6.03;;;5.47;;
846;SDS011;410;48.954;9.474;2023-06-10T07:07:13;5.90;;;5.30;;
846;SDS011;410;48.954;9.474;2023-06-10T07:09:17;5.40;;;4.90;;
846;SDS011;410;48.954;9.474;2023-06-10T07:11:20;5.90;;;5.33;;
846;SDS011;410;48.954;9.474;2023-06-10T07:13:23;5.77;;;5.27;;
846;SDS011;410;48.954;9.474;2023-06-10T07:15:26;7.57;;;6.13;;
846;SDS011;410;48.954;9.474;2023-06-10T07:17:29;6.73;;;5.60;;
846;SDS011;410;48.954;9.474;2023-06-10T07:19:33;6.37;;;5.77;;
846;SDS011;410;48.954;9.474;2023-06-10T07:21:36;6.80;;;6.10;;
846;SDS011;410;48.954;9.474;2023-06-10T07:23:41;6.07;;;5.57;;
846;SDS011;410;48.954;9.474;2023-06-10T07:25:46;6.43;;;5.40;;
846;SDS011;410;48.954;9.474;2023-06-10T07:27:49;7.80;;;6.10;;
846;SDS011;410;48.954;9.474;2023-06-10T07:29:52;6.27;;;5.67;;
846;SDS011;410;48.954;9.474;2023-06-10T07:31:56;6.40;;;5.50;;
846;SDS011;410;48.954;9.474;2023-06-10T07:33:59;6.93;;;6.23;;
846;SDS011;410;48.954;9.474;2023-06-10T07:36:04;6.20;;;5.60;;
846;SDS011;410;48.954;9.474;2023-06-10T07:38:10;6.33;;;5.73;;
846;SDS011;410;48.954;9.474;2023-06-10T07:40:13;6.20;;;5.60;;
846;SDS011;410;48.954;9.474;2023-06-10T07:42:18;6.50;;;5.90;;
846;SDS011;410;48.954;9.474;2023-06-10T07:44:21;6.77;;;6.17;;
846;SDS011;410;48.954;9.474;2023-06-10T07:46:24;6.77;;;6.17;;
846;SDS011;410;48.954;9.474;2023-06-10T07:48:28;8.30;;;5.93;;
846;SDS011;410;48.954;9.474;2023-06-10T07:50:32;7.03;;;6.10;;
846;SDS011;410;48.954;9.474;2023-06-10T07:52:35;5.80;;;5.20;;
846;SDS011;410;48.954;9.474;2023-06-10T07:54:38;6.90;;;5.60;;
846;SDS011;410;48.954;9.474;2023-06-10T07:56:41;7.47;;;5.83;;
846;SDS011;410;48.954;9.474;2023-06-10T07:58:45;6.17;;;5.57;;
846;SDS011;410;48.954;9.474;2023-06-10T08:00:49;6.13;;;5.53;;
846;SDS011;410;48.954;9.474;2023-06-10T08:02:52;6.10;;;5.50;;
846;SDS011;410;48.954;9.474;2023-06-10T08:04:55;6.33;;;5.73;;
846;SDS011;410;48.954;9.474;2023-06-10T08:06:58;6.60;;;5.90;;
846;SDS011;410;48.954;9.474;2023-06-10T08:09:01;6.20;;;5.60;;
846;SDS011;410;48.954;9.474;2023-06-10T08:11:05;5.83;;;5.33;;
846;SDS011;410;48.954;9.474;2023-06-10T08:13:08;6.00;;;5.40;;
846;SDS011;410;48.954;9.474;2023-06-10T08:15:13;6.17;;;5.47;;
846;SDS011;410;48.954;9.474;2023-06-10T08:17:16;6.03;;;5.50;;
846;SDS011;410;48.954;9.474;2023-06-10T08:19:19;6.37;;;5.77;;
846;SDS011;410;48.954;9.474;2023-06-10T08:21:22;6.07;;;5.57;;
846;SDS011;410;48.954;9.474;2023-06-10T08:23:25;6.50;;;5.90;;
846;SDS011;410;48.954;9.474;2023-06-10T08:25:29;5.70;;;5.20;;
846;SDS011;410;48.954;9.474;2023-06-10T08:27:32;6.03;;;5.40;;
846;SDS011;410;48.954;9.474;2023-06-10T08:29:35;6.30;;;5.70;;
846;SDS011;410;48.954;9.474;2023-06-10T08:31:42;6.73;;;5.80;;
846;SDS011;410;48.954;9.474;2023-06-10T08:33:45;6.70;;;5.67;;
846;SDS011;410;48.954;9.474;2023-06-10T08:35:48;6.10;;;5.60;;
846;SDS011;410;48.954;9.474;2023-06-10T08:37:51;6.90;;;6.10;;
846;SDS011;410;48.954;9.474;2023-06-10T08:39:54;6.03;;;5.53;;
846;SDS011;410;48.954;9.474;2023-06-10T08:42:00;6.43;;;5.83;;
846;SDS011;410;48.954;9.474;2023-06-10T08:44:16;6.93;;;5.80;;
846;SDS011;410;48.954;9.474;2023-06-10T08:46:22;6.43;;;5.83;;
846;SDS011;410;48.954;9.474;2023-06-10T08:48:27;7.00;;;6.30;;
846;SDS011;410;48.954;9.474;2023-06-10T08:50:34;6.97;;;6.30;;
846;SDS011;410;48.954;9.474;2023-06-10T08:52:40;6.43;;;5.73;;
846;SDS011;410;48.954;9.474;2023-06-10T08:54:46;7.20;;;6.50;;
846;SDS011;410;48.954;9.474;2023-06-10T08:56:52;7.40;;;6.70;;
846;SDS011;410;48.954;9.474;2023-06-10T08:58:57;7.30;;;6.50;;
846;SDS011;410;48.954;9.474;2023-06-10T09:01:00;7.20;;;6.53;;
846;SDS011;410;48.954;9.474;2023-06-10T09:03:04;6.80;;;6.20;;
846;SDS011;410;48.954;9.474;2023-06-10T09:05:12;8.10;;;7.30;;
846;SDS011;410;48.954;9.474;2023-06-10T09:07:16;7.23;;;5.77;;
846;SDS011;410;48.954;9.474;2023-06-10T09:09:22;7.50;;;6.70;;
846;SDS011;410;48.954;9.474;2023-06-10T09:11:26;7.90;;;7.10;;
846;SDS011;410;48.954;9.474;2023-06-10T09:13:29;7.50;;;6.83;;
846;SDS011;410;48.954;9.474;2023-06-10T09:15:32;7.50;;;6.80;;
846;SDS011;410;48.954;9.474;2023-06-10T09:17:35;6.90;;;6.30;;
846;SDS011;410;48.954;9.474;2023-06-10T09:19:39;7.47;;;6.77;;
846;SDS011;410;48.954;9.474;2023-06-10T09:21:44;7.60;;;6.90;;
846;SDS011;410;48.954;9.474;2023-06-10T09:23:47;7.07;;;6.47;;
846;SDS011;410;48.954;9.474;2023-06-10T09:25:55;7.30;;;6.60;;
846;SDS011;410;48.954;9.474;2023-06-10T09:27:59;7.20;;;6.60;;
846;SDS011;410;48.954;9.474;2023-06-10T09:30:02;7.13;;;6.43;;
846;SDS011;410;48.954;9.474;2023-06-10T09:32:07;6.90;;;6.20;;
846;SDS011;410;48.954;9.474;2023-06-10T09:34:11;6.73;;;6.13;;
846;SDS011;410;48.954;9.474;2023-06-10T09:36:21;9.23;;;5.70;;
846;SDS011;410;48.954;9.474;2023-06-10T09:38:29;6.10;;;5.50;;
846;SDS011;410;48.954;9.474;2023-06-10T09:40:34;6.47;;;5.80;;
846;SDS011;410;48.954;9.474;2023-06-10T09:42:52;6.20;;;5.70;;
846;SDS011;410;48.954;9.474;2023-06-10T09:44:57;6.57;;;5.97;;
846;SDS011;410;48.954;9.474;2023-06-10T09:47:00;7.60;;;6.90;;
846;SDS011;410;48.954;9.474;2023-06-10T09:49:04;7.30;;;6.57;;
846;SDS011;410;48.954;9.474;2023-06-10T09:51:08;6.13;;;5.63;;
846;SDS011;410;48.954;9.474;2023-06-10T09:53:12;6.53;;;5.83;;
846;SDS011;410;48.954;9.474;2023-06-10T09:55:17;5.57;;;5.07;;
846;SDS011;410;48.954;9.474;2023-06-10T09:57:21;6.57;;;6.00;;
846;SDS011;410;48.954;9.474;2023-06-10T09:59:30;6.77;;;6.07;;
846;SDS011;410;48.954;9.474;2023-06-10T10:01:34;5.90;;;5.30;;
846;SDS011;410;48.954;9.474;2023-06-10T10:03:43;6.37;;;5.87;;
846;SDS011;410;48.954;9.474;2023-06-10T10:05:48;5.63;;;5.13;;
846;SDS011;410;48.954;9.474;2023-06-10T10:07:51;5.93;;;5.33;;
846;SDS011;410;48.954;9.474;2023-06-10T10:09:54;5.57;;;5.07;;
846;SDS011;410;48.954;9.474;2023-06-10T10:11:59;5.90;;;5.40;;
846;SDS011;410;48.954;9.474;2023-06-10T10:14:04;6.37;;;5.77;;
846;SDS011;410;48.954;9.474;2023-06-10T10:16:11;6.40;;;5.80;;
846;SDS011;410;48.954;9.474;2023-06-10T10:18:18;6.00;;;5.50;;
846;SDS011;410;48.954;9.474;2023-06-10T10:20:24;6.40;;;5.90;;
846;SDS011;410;48.954;9.474;2023-06-10T10:22:31;5.77;;;5.17;;
846;SDS011;410;48.954;9.474;2023-06-10T10:24:41;6.27;;;5.67;;
846;SDS011;410;48.954;9.474;2023-06-10T10:26:47;5.70;;;5.20;;
846;SDS011;410;48.954;9.474;2023-06-10T10:28:53;6.10;;;5.60;;
846;SDS011;410;48.954;9.474;2023-06-10T10:31:02;5.73;;;5.23;;
846;SDS011;410;48.954;9.474;2023-06-10T10:33:09;6.17;;;5.57;;
846;SDS011;410;48.954;9.474;2023-06-10T10:35:16;6.43;;;5.83;;
846;SDS011;410;48.954;9.474;2023-06-10T10:37:20;5.93;;;5.43;;
846;SDS011;410;48.954;9.474;2023-06-10T10:39:24;7.07;;;6.47;;
846;SDS011;410;48.954;9.474;2023-06-10T10:41:53;6.70;;;6.10;;
846;SDS011;410;48.954;9.474;2023-06-10T10:43:59;6.10;;;5.60;;
846;SDS011;410;48.954;9.474;2023-06-10T10:46:08;6.80;;;6.20;;
846;SDS011;410;48.954;9.474;2023-06-10T10:48:13;6.43;;;5.83;;
846;SDS011;410;48.954;9.474;2023-06-10T10:50:18;6.00;;;5.47;;
846;SDS011;410;48.954;9.474;2023-06-10T10:52:22;6.40;;;5.73;;
846;SDS011;410;48.954;9.474;2023-06-10T10:54:28;6.30;;;5.80;;
846;SDS011;410;48.954;9.474;2023-06-10T10:56:33;6.73;;;6.13;;
846;SDS011;410;48.954;9.474;2023-06-10T10:58:36;6.90;;;6.30;;
846;SDS011;410;48.954;9.474;2023-06-10T11:00:44;6.40;;;5.80;;
846;SDS011;410;48.954;9.474;2023-06-10T11:02:47;7.27;;;6.57;;
846;SDS011;410;48.954;9.474;2023-06-10T11:04:56;6.30;;;5.80;;
846;SDS011;410;48.954;9.474;2023-06-10T11:07:04;6.30;;;5.70;;
846;SDS011;410;48.954;9.474;2023-06-10T11:11:30;6.57;;;5.80;;
846;SDS011;410;48.954;9.474;2023-06-10T11:13:34;6.43;;;5.83;;
846;SDS011;410;48.954;9.474;2023-06-10T11:15:44;7.00;;;5.60;;
846;SDS011;410;48.954;9.474;2023-06-10T11:20:11;6.43;;;5.60;;
846;SDS011;410;48.954;9.474;2023-06-10T11:22:16;5.83;;;5.33;;
846;SDS011;410;48.954;9.474;2023-06-10T11:24:19;7.00;;;6.40;;
846;SDS011;410;48.954;9.474;2023-06-10T11:26:29;6.40;;;5.90;;
846;SDS011;410;48.954;9.474;2023-06-10T11:28:37;6.50;;;5.90;;
846;SDS011;410;48.954;9.474;2023-06-10T11:30:40;5.97;;;5.43;;
846;SDS011;410;48.954;9.474;2023-06-10T11:32:50;6.87;;;6.27;;
846;SDS011;410;48.954;9.474;2023-06-10T11:34:55;6.20;;;5.60;;
846;SDS011;410;48.954;9.474;2023-06-10T11:36:58;5.97;;;5.37;;
846;SDS011;410;48.954;9.474;2023-06-10T11:39:02;5.50;;;5.00;;
846;SDS011;410;48.954;9.474;2023-06-10T11:41:07;6.03;;;5.03;;
846;SDS011;410;48.954;9.474;2023-06-10T11:43:10;5.90;;;5.30;;
846;SDS011;410;48.954;9.474;2023-06-10T11:45:14;5.53;;;5.03;;
846;SDS011;410;48.954;9.474;2023-06-10T11:47:20;5.50;;;5.03;;
846;SDS011;410;48.954;9.474;2023-06-10T11:49:23;4.70;;;4.30;;
846;SDS011;410;48.954;9.474;2023-06-10T11:51:27;5.20;;;4.73;;
846;SDS011;410;48.954;9.474;2023-06-10T11:53:31;4.77;;;4.37;;
846;SDS011;410;48.954;9.474;2023-06-10T11:55:44;5.33;;;4.87;;
846;SDS011;410;48.954;9.474;2023-06-10T11:57:47;5.27;;;4.77;;
846;SDS011;410;48.954;9.474;2023-06-10T12:00:03;6.10;;;5.27;;
846;SDS011;410;48.954;9.474;2023-06-10T12:02:14;4.80;;;4.40;;
846;SDS011;410;48.954;9.474;2023-06-10T12:04:19;5.43;;;4.47;;
846;SDS011;410;48.954;9.474;2023-06-10T12:06:23;4.33;;;3.93;;
846;SDS011;410;48.954;9.474;2023-06-10T12:08:26;5.00;;;4.50;;
846;SDS011;410;48.954;9.474;2023-06-10T12:10:30;5.40;;;5.00;;
846;SDS011;410;48.954;9.474;2023-06-10T12:12:34;5.00;;;4.50;;
846;SDS011;410;48.954;9.474;2023-06-10T12:14:54;4.80;;;4.30;;
846;SDS011;410;48.954;9.474;2023-06-10T12:16:58;4.13;;;3.73;;
846;SDS011;410;48.954;9.474;2023-06-10T12:19:02;5.00;;;4.60;;
846;SDS011;410;48.954;9.474;2023-06-10T12:21:16;4.73;;;4.20;;
846;SDS011;410;48.954;9.474;2023-06-10T12:23:20;4.87;;;4.43;;
846;SDS011;410;48.954;9.474;2023-06-10T12:25:24;4.77;;;4.37;;
846;SDS011;410;48.954;9.474;2023-06-10T12:27:28;5.23;;;4.07;;
846;SDS011;410;48.954;9.474;2023-06-10T12:29:32;4.63;;;4.23;;
846;SDS011;410;48.954;9.474;2023-06-10T12:34:09;4.73;;;4.23;;
846;SDS011;410;48.954;9.474;2023-06-10T12:36:17;4.83;;;4.43;;
846;SDS011;410;48.954;9.474;2023-06-10T12:38:23;4.83;;;4.40;;
846;SDS011;410;48.954;9.474;2023-06-10T12:40:29;5.00;;;4.50;;
846;SDS011;410;48.954;9.474;2023-06-10T12:42:33;5.23;;;4.40;;
846;SDS011;410;48.954;9.474;2023-06-10T12:44:38;6.47;;;5.30;;
846;SDS011;410;48.954;9.474;2023-06-10T12:46:42;4.70;;;4.30;;
846;SDS011;410;48.954;9.474;2023-06-10T12:48:49;5.03;;;4.53;;
846;SDS011;410;48.954;9.474;2023-06-10T12:50:54;4.63;;;4.23;;
846;SDS011;410;48.954;9.474;2023-06-10T12:53:00;5.10;;;4.60;;
846;SDS011;410;48.954;9.474;2023-06-10T12:55:04;5.50;;;5.00;;
846;SDS011;410;48.954;9.474;2023-06-10T12:57:08;5.43;;;4.93;;
846;SDS011;410;48.954;9.474;2023-06-10T12:59:11;4.93;;;4.53;;
846;SDS011;410;48.954;9.474;2023-06-10T13:01:15;4.82;;;4.32;;
846;SDS011;410;48.954;9.474;2023-06-10T13:03:18;5.47;;;4.97;;
846;SDS011;410;48.954;9.474;2023-06-10T13:05:22;5.80;;;5.20;;
846;SDS011;410;48.954;9.474;2023-06-10T13:07:26;6.17;;;5.57;;
846;SDS011;410;48.954;9.474;2023-06-10T13:09:30;5.43;;;4.93;;
846;SDS011;410;48.954;9.474;2023-06-10T13:11:34;5.57;;;5.07;;
846;SDS011;410;48.954;9.474;2023-06-10T13:13:37;5.40;;;4.70;;
846;SDS011;410;48.954;9.474;2023-06-10T13:15:41;5.63;;;5.13;;
846;SDS011;410;48.954;9.474;2023-06-10T13:17:45;6.80;;;5.27;;
846;SDS011;410;48.954;9.474;2023-06-10T13:19:51;5.23;;;4.73;;
846;SDS011;410;48.954;9.474;2023-06-10T13:21:58;5.40;;;4.90;;
846;SDS011;410;48.954;9.474;2023-06-10T13:24:01;5.43;;;4.93;;
846;SDS011;410;48.954;9.474;2023-06-10T13:26:06;5.63;;;5.13;;
846;SDS011;410;48.954;9.474;2023-06-10T13:28:09;4.97;;;4.50;;